Kenseh, Arkansas
Current Conditions -  °F | °C
As of 7:56 AM on Sunday 25 Jan 2015 (Local Time) from KSRC Reporting Station
Overcast Overcast  
Wind Chill: 39°   Ceiling: 8000
Heat Index: 43°   Visibility: 10mi
Dew Point: 36°   Wind: 6mph
Humidity: 76%   Direction: 210°SSW
Pressure: 29.74"   Gusts: NA
Location:  35.2119°N, 91.6651°W
Report Text: KSRC 251356Z AUTO 21005KT 10SM OVC080 06/02 A2974 RMK AO2 SLP078 T00610022 TSNO
Loading
Personal Weather Stations






























Interactive Weather Map New forecast layout! Learn more

10-Day Weather Forecast

Advertisements
Track Severe Weather on mobile